Time;durP1;ratioP1;P1;durP2;ratioP2;P2;SDS_P1;SDS_P2;PMS_P1;PMS_P2;Temp;Humidity;BMP_temperature;BMP_pressure;BME280_temperature;BME280_humidity;BME280_pressure;Samples;Min_cycle;Max_cycle;Signal;HPM_P1;HPM_P2
2024/04/05 00:00:47;;;;;;;2.57;1.23;;;12.10;99.90;;;;;;5058310;28;20594;-62
2024/04/05 00:03:17;;;;;;;2.60;1.07;;;12.10;99.90;;;;;;5059978;28;20440;-62
2024/04/05 00:05:44;;;;;;;2.13;1.20;;;12.10;99.90;;;;;;5058681;28;20968;-63
2024/04/05 00:08:09;;;;;;;1.60;1.10;;;12.10;99.90;;;;;;5059263;28;20534;-63
2024/04/05 00:10:36;;;;;;;1.87;1.10;;;12.10;99.90;;;;;;5059157;28;20545;-63
2024/04/05 00:13:02;;;;;;;3.50;2.23;;;12.10;99.90;;;;;;5060748;28;20220;-62
2024/04/05 00:15:29;;;;;;;1.60;0.87;;;12.10;99.90;;;;;;5057043;28;20551;-64
2024/04/05 00:17:55;;;;;;;4.23;1.70;;;12.20;99.90;;;;;;5058072;28;20523;-62
2024/04/05 00:20:23;;;;;;;2.90;1.10;;;12.20;99.90;;;;;;5062344;28;20826;-62
2024/04/05 00:22:49;;;;;;;2.67;1.47;;;12.30;99.90;;;;;;5062961;28;20194;-63
2024/04/05 00:25:17;;;;;;;3.60;1.30;;;12.30;99.90;;;;;;5057320;28;20832;-63
2024/04/05 00:27:43;;;;;;;2.90;1.50;;;12.30;99.90;;;;;;5066021;28;20448;-62
2024/04/05 00:30:10;;;;;;;5.60;1.43;;;12.30;99.90;;;;;;5060990;28;20454;-64
2024/04/05 00:32:36;;;;;;;3.30;1.20;;;12.40;99.90;;;;;;5062579;28;20303;-64
2024/04/05 00:35:03;;;;;;;2.80;1.40;;;12.30;99.90;;;;;;5066534;28;20577;-62
2024/04/05 00:37:32;;;;;;;3.40;1.10;;;12.30;99.90;;;;;;5066403;28;20291;-62
2024/04/05 00:39:59;;;;;;;3.93;1.20;;;12.40;99.90;;;;;;5066307;28;20974;-63
2024/04/05 00:42:25;;;;;;;2.67;1.20;;;12.40;99.90;;;;;;5067188;28;20811;-62
2024/04/05 00:44:52;;;;;;;8.10;1.63;;;12.40;99.90;;;;;;5065420;28;20455;-63
2024/04/05 00:47:17;;;;;;;4.53;2.03;;;12.40;99.90;;;;;;5058050;28;20288;-63
2024/04/05 00:49:44;;;;;;;5.50;2.30;;;12.30;99.90;;;;;;5063273;28;20550;-64
2024/04/05 00:52:11;;;;;;;2.60;1.23;;;12.30;99.90;;;;;;5052540;28;20457;-63
2024/04/05 00:54:39;;;;;;;1.83;1.23;;;12.40;99.90;;;;;;5055891;28;20473;-62
2024/04/05 00:57:05;;;;;;;2.17;1.10;;;12.30;99.90;;;;;;5063291;28;20479;-62
2024/04/05 00:59:33;;;;;;;3.13;1.50;;;12.30;99.90;;;;;;5063336;28;20442;-63
2024/04/05 01:01:59;;;;;;;4.07;1.20;;;12.30;99.90;;;;;;5061494;28;20519;-64
2024/04/05 01:04:26;;;;;;;2.03;1.30;;;12.30;99.90;;;;;;5056327;28;20545;-62
2024/04/05 01:06:52;;;;;;;4.00;1.57;;;12.20;99.90;;;;;;5057994;28;20473;-63
2024/04/05 01:09:21;;;;;;;2.90;1.63;;;12.20;99.90;;;;;;5056008;28;20502;-63
2024/04/05 01:11:55;;;;;;;3.53;1.47;;;12.20;99.90;;;;;;5056061;28;20795;-64
2024/04/05 01:14:22;;;;;;;1.97;1.17;;;12.20;99.90;;;;;;5057013;28;20487;-63
2024/04/05 01:16:48;;;;;;;1.57;1.10;;;12.20;99.90;;;;;;5059884;28;20911;-62
2024/04/05 01:19:17;;;;;;;6.20;1.50;;;12.20;99.90;;;;;;5054706;28;20440;-63
2024/04/05 01:21:45;;;;;;;2.80;1.70;;;12.20;99.90;;;;;;5060649;28;20442;-63
2024/04/05 01:24:13;;;;;;;3.80;2.07;;;12.10;99.90;;;;;;5057174;28;20455;-63
2024/04/05 01:26:39;;;;;;;5.57;1.67;;;12.10;99.90;;;;;;5056121;28;20530;-62
2024/04/05 01:29:06;;;;;;;1.90;1.63;;;12.00;99.90;;;;;;5052568;28;20527;-62
2024/04/05 01:31:31;;;;;;;2.60;1.33;;;12.00;99.90;;;;;;5058812;28;20193;-63
2024/04/05 01:33:58;;;;;;;2.33;1.60;;;12.10;99.90;;;;;;5061542;28;21050;-64
2024/04/05 01:36:24;;;;;;;3.10;1.10;;;12.10;99.90;;;;;;5062997;28;20301;-63
2024/04/05 01:38:51;;;;;;;3.33;1.53;;;12.10;99.90;;;;;;5052257;28;20526;-63
2024/04/05 01:41:19;;;;;;;2.10;1.23;;;12.10;99.90;;;;;;5052820;28;20530;-63
2024/04/05 01:43:46;;;;;;;6.57;1.50;;;12.10;99.90;;;;;;5048770;28;20471;-63
2024/04/05 01:46:12;;;;;;;7.50;1.20;;;12.10;99.90;;;;;;5050287;28;20450;-64
2024/04/05 01:48:39;;;;;;;5.03;1.60;;;12.10;99.90;;;;;;5052242;28;21015;-63
2024/04/05 01:51:05;;;;;;;2.47;1.93;;;12.10;99.90;;;;;;5052092;28;20483;-61
2024/04/05 01:53:32;;;;;;;4.07;1.43;;;12.10;99.90;;;;;;5051608;28;20600;-62
2024/04/05 01:56:00;;;;;;;1.83;1.30;;;12.20;99.90;;;;;;5052410;28;20296;-63
2024/04/05 01:58:29;;;;;;;3.40;1.60;;;12.20;99.90;;;;;;5052108;28;20444;-64
2024/04/05 02:00:59;;;;;;;2.97;0.90;;;12.20;99.90;;;;;;5052159;28;20863;-62
2024/04/05 02:03:26;;;;;;;6.80;1.80;;;12.20;99.90;;;;;;5051768;28;20435;-62
2024/04/05 02:05:52;;;;;;;4.50;1.80;;;12.20;99.90;;;;;;5051634;28;20501;-63
2024/04/05 02:08:19;;;;;;;2.10;1.00;;;12.20;99.90;;;;;;5051759;28;20506;-63
2024/04/05 02:10:45;;;;;;;23.23;10.63;;;12.30;99.90;;;;;;5051547;28;20288;-63
2024/04/05 02:13:12;;;;;;;4.30;1.60;;;12.30;99.90;;;;;;5051720;28;20821;-63
2024/04/05 02:15:44;;;;;;;3.67;2.00;;;12.30;99.90;;;;;;5051700;28;20550;-63
2024/04/05 02:18:11;;;;;;;3.23;1.43;;;12.30;99.90;;;;;;5051786;28;20808;-62
2024/04/05 02:20:39;;;;;;;3.40;1.30;;;12.30;99.90;;;;;;5051691;28;20980;-62
2024/04/05 02:23:06;;;;;;;3.43;1.37;;;12.30;99.90;;;;;;5051873;28;20546;-63
2024/04/05 02:25:32;;;;;;;2.93;2.70;;;12.30;99.90;;;;;;5051643;28;20471;-63
2024/04/05 02:27:59;;;;;;;3.93;1.50;;;12.30;99.90;;;;;;5051855;28;20773;-62
2024/04/05 02:30:25;;;;;;;2.00;1.23;;;12.30;99.90;;;;;;5051537;28;20514;-63
2024/04/05 02:32:54;;;;;;;4.43;1.30;;;12.30;99.90;;;;;;5051386;28;20530;-62
2024/04/05 02:35:20;;;;;;;3.13;1.20;;;12.30;99.90;;;;;;5050938;28;20463;-63
2024/04/05 02:37:47;;;;;;;3.10;1.37;;;12.30;99.90;;;;;;5050837;28;20446;-62
2024/04/05 02:40:13;;;;;;;2.80;1.23;;;12.30;99.90;;;;;;5050355;28;20306;-62
2024/04/05 02:42:39;;;;;;;3.57;2.00;;;12.30;99.90;;;;;;5051247;28;20522;-65
2024/04/05 02:45:06;;;;;;;2.90;1.37;;;12.30;99.90;;;;;;5050607;28;20487;-62
2024/04/05 02:47:33;;;;;;;7.43;1.50;;;12.30;99.90;;;;;;5050786;28;20447;-63
2024/04/05 02:50:00;;;;;;;2.70;1.43;;;12.40;99.90;;;;;;5052152;28;20948;-64
2024/04/05 02:52:27;;;;;;;5.00;1.10;;;12.30;99.90;;;;;;5051950;28;20452;-65
2024/04/05 02:54:53;;;;;;;5.33;1.17;;;12.30;99.90;;;;;;5051745;28;20460;-63
2024/04/05 02:57:20;;;;;;;2.87;1.57;;;12.30;99.90;;;;;;5051822;28;20849;-63
2024/04/05 02:59:46;;;;;;;2.40;1.40;;;12.30;99.90;;;;;;5052001;28;20468;-63
2024/04/05 03:02:13;;;;;;;7.70;1.60;;;12.30;99.90;;;;;;5051804;28;20971;-64
2024/04/05 03:04:38;;;;;;;5.43;1.87;;;12.20;99.90;;;;;;5051615;28;20225;-63
2024/04/05 03:07:07;;;;;;;3.73;1.30;;;12.30;99.90;;;;;;5049029;28;20458;-63
2024/04/05 03:09:35;;;;;;;2.17;1.17;;;12.30;99.90;;;;;;5052228;28;20287;-63
2024/04/05 03:12:02;;;;;;;1.80;1.13;;;12.30;99.90;;;;;;5052097;28;20435;-62
2024/04/05 03:14:28;;;;;;;1.70;1.20;;;12.20;99.90;;;;;;5051604;28;20487;-62
2024/04/05 03:16:55;;;;;;;3.13;1.63;;;12.20;99.90;;;;;;5051984;28;20455;-62
2024/04/05 03:19:21;;;;;;;4.93;1.20;;;12.20;99.90;;;;;;5052001;28;20292;-63
2024/04/05 03:21:48;;;;;;;15.50;2.13;;;12.20;99.90;;;;;;5052033;28;20522;-62
2024/04/05 03:26:50;;;;;;;5.50;1.77;;;12.10;99.90;;;;;;5049270;28;21077;-53
2024/04/05 03:29:16;;;;;;;5.40;1.40;;;12.10;99.90;;;;;;5036103;28;20524;-52
2024/04/05 03:31:43;;;;;;;3.20;1.30;;;12.10;99.90;;;;;;5030912;28;20456;-57
2024/04/05 03:34:09;;;;;;;4.50;1.57;;;12.10;99.90;;;;;;5043097;28;20480;-60
2024/04/05 03:36:36;;;;;;;2.27;1.60;;;12.10;99.90;;;;;;5062036;28;20504;-59
2024/04/05 03:39:03;;;;;;;3.40;1.80;;;12.10;99.90;;;;;;5066954;28;20522;-59
2024/04/05 03:41:30;;;;;;;4.93;1.93;;;12.10;99.90;;;;;;5071499;28;20880;-56
2024/04/05 03:43:57;;;;;;;10.97;1.30;;;12.10;99.90;;;;;;5071672;28;20484;-55
2024/04/05 03:46:24;;;;;;;6.13;1.80;;;12.10;99.90;;;;;;5063246;28;20463;-59
2024/04/05 03:48:50;;;;;;;4.67;1.40;;;12.10;99.90;;;;;;5069881;28;20838;-58
2024/04/05 03:51:17;;;;;;;5.93;1.47;;;12.10;99.90;;;;;;5059624;28;20477;-55
2024/04/05 03:53:43;;;;;;;5.97;1.50;;;12.00;99.90;;;;;;5062996;28;20489;-55
2024/04/05 03:56:10;;;;;;;4.13;3.13;;;12.00;99.90;;;;;;5064244;28;20795;-56
2024/04/05 03:58:35;;;;;;;9.17;1.90;;;12.00;99.90;;;;;;5069536;28;20258;-56
2024/04/05 04:01:04;;;;;;;5.40;1.77;;;12.00;99.90;;;;;;5067297;28;20443;-59
2024/04/05 04:03:30;;;;;;;8.00;1.70;;;12.10;99.90;;;;;;5057299;28;20463;-60
2024/04/05 04:05:57;;;;;;;6.13;1.43;;;12.10;99.90;;;;;;5074663;28;20522;-54
2024/04/05 04:08:23;;;;;;;4.20;1.50;;;12.10;99.90;;;;;;5069278;28;20527;-58
2024/04/05 04:10:51;;;;;;;3.10;1.30;;;12.10;99.90;;;;;;5075243;28;20537;-59
2024/04/05 04:13:17;;;;;;;6.87;1.77;;;12.10;99.90;;;;;;5074707;28;20521;-59
2024/04/05 04:15:44;;;;;;;4.17;1.97;;;12.20;99.90;;;;;;5062119;28;20474;-61
2024/04/05 04:18:11;;;;;;;7.53;1.90;;;12.20;99.90;;;;;;5066295;28;20435;-60
2024/04/05 04:20:39;;;;;;;3.43;1.43;;;12.20;99.90;;;;;;5072457;28;20802;-57
2024/04/05 04:23:05;;;;;;;2.83;1.33;;;12.30;99.90;;;;;;5070942;28;20470;-57
2024/04/05 04:25:32;;;;;;;5.03;1.33;;;12.30;99.90;;;;;;5060131;28;20478;-58
2024/04/05 04:27:58;;;;;;;2.10;0.90;;;12.30;99.90;;;;;;5065712;28;20455;-62
2024/04/05 04:30:25;;;;;;;5.57;1.53;;;12.30;99.90;;;;;;5069548;28;20447;-59
2024/04/05 04:32:51;;;;;;;5.83;1.73;;;12.30;99.90;;;;;;5065878;28;20228;-59
2024/04/05 04:35:20;;;;;;;10.00;1.60;;;12.30;99.90;;;;;;5065596;28;20490;-57
2024/04/05 04:37:45;;;;;;;8.87;1.80;;;12.20;99.90;;;;;;5074110;28;20478;-57
2024/04/05 04:40:12;;;;;;;5.03;1.57;;;12.20;99.90;;;;;;5063588;28;20483;-58
2024/04/05 04:42:38;;;;;;;3.70;1.40;;;12.20;99.90;;;;;;5074560;28;20209;-61
2024/04/05 04:45:06;;;;;;;4.30;1.47;;;12.20;99.90;;;;;;5070053;28;20460;-62
2024/04/05 04:47:32;;;;;;;4.63;1.67;;;12.20;99.90;;;;;;5065439;28;20542;-61
2024/04/05 04:49:59;;;;;;;2.93;1.57;;;12.20;99.90;;;;;;5071078;28;20459;-56
2024/04/05 04:52:27;;;;;;;6.97;1.67;;;12.20;99.90;;;;;;5074886;28;20539;-59
2024/04/05 04:54:56;;;;;;;4.37;1.87;;;12.20;99.90;;;;;;5073756;28;20500;-59
2024/04/05 04:57:22;;;;;;;7.93;1.53;;;12.20;99.90;;;;;;5068263;28;20509;-61
2024/04/05 04:59:49;;;;;;;3.37;1.83;;;12.10;99.90;;;;;;5065538;28;20435;-62
2024/04/05 05:02:15;;;;;;;4.50;1.20;;;12.10;99.90;;;;;;5073960;28;20478;-62
2024/04/05 05:04:42;;;;;;;4.97;1.40;;;12.10;99.90;;;;;;5073255;28;20490;-61
2024/04/05 05:07:08;;;;;;;2.90;1.20;;;12.10;99.90;;;;;;5073661;28;20935;-60
2024/04/05 05:09:36;;;;;;;5.30;1.93;;;12.10;99.90;;;;;;5073165;28;20482;-62
2024/04/05 05:12:03;;;;;;;2.60;1.17;;;12.10;99.90;;;;;;5073751;28;20882;-59
2024/04/05 05:14:30;;;;;;;2.73;1.40;;;12.10;99.90;;;;;;5069393;28;20482;-60
2024/04/05 05:16:55;;;;;;;1.63;1.30;;;12.00;99.90;;;;;;5065213;28;20819;-58
2024/04/05 05:19:22;;;;;;;3.53;1.47;;;12.00;99.90;;;;;;5064306;28;20446;-60
2024/04/05 05:21:48;;;;;;;2.73;1.53;;;12.00;99.90;;;;;;5061722;28;20239;-62
2024/04/05 05:24:15;;;;;;;4.50;1.23;;;11.90;99.90;;;;;;5062619;28;20551;-56
2024/04/05 05:26:42;;;;;;;13.77;1.80;;;12.00;99.90;;;;;;5064687;28;20233;-60
2024/04/05 05:29:10;;;;;;;6.10;1.90;;;12.00;99.90;;;;;;5073117;28;20505;-58
2024/04/05 05:31:35;;;;;;;4.73;1.40;;;12.10;99.90;;;;;;5062110;28;20828;-59
2024/04/05 05:34:02;;;;;;;3.77;1.30;;;12.10;99.90;;;;;;5055762;28;20574;-58
2024/04/05 05:36:28;;;;;;;4.97;1.40;;;12.20;99.90;;;;;;5057556;28;20204;-59
2024/04/05 05:38:55;;;;;;;1.87;1.20;;;12.20;99.90;;;;;;5064559;28;20431;-59
2024/04/05 05:41:21;;;;;;;9.10;2.10;;;12.30;99.90;;;;;;5071238;28;20543;-59
2024/04/05 05:43:50;;;;;;;9.87;2.00;;;12.30;99.90;;;;;;5064239;28;20545;-59
2024/04/05 05:46:16;;;;;;;5.80;1.93;;;12.40;99.90;;;;;;5072424;28;20447;-59
2024/04/05 05:48:43;;;;;;;2.90;1.50;;;12.40;99.90;;;;;;5064870;28;20512;-58
2024/04/05 05:51:09;;;;;;;4.87;2.33;;;12.40;99.90;;;;;;5072757;28;20451;-59
2024/04/05 05:53:36;;;;;;;11.73;1.63;;;12.50;99.90;;;;;;5072209;28;20494;-61
2024/04/05 05:56:02;;;;;;;4.97;1.80;;;12.50;99.90;;;;;;5072775;28;20446;-58
2024/04/05 05:58:29;;;;;;;8.23;1.97;;;12.50;99.90;;;;;;5072513;28;20469;-59
2024/04/05 06:00:56;;;;;;;2.57;1.50;;;12.60;99.90;;;;;;5064050;28;20533;-57
2024/04/05 06:03:23;;;;;;;8.80;2.07;;;12.60;99.90;;;;;;5072356;28;20449;-58
2024/04/05 06:05:51;;;;;;;5.83;2.07;;;12.50;99.90;;;;;;5072433;28;20857;-57
2024/04/05 06:08:18;;;;;;;3.80;1.17;;;12.60;99.90;;;;;;5072728;28;20829;-54
2024/04/05 06:10:53;;;;;;;15.60;3.73;;;12.70;99.90;;;;;;5072726;28;20935;-52
2024/04/05 06:13:20;;;;;;;5.50;1.63;;;12.70;99.90;;;;;;5072210;28;20917;-52
2024/04/05 06:15:52;;;;;;;6.40;1.43;;;12.80;99.90;;;;;;5072105;28;20426;-57
2024/04/05 06:18:20;;;;;;;7.00;1.30;;;12.80;99.90;;;;;;5069578;28;20454;-58
2024/04/05 06:20:52;;;;;;;4.30;1.10;;;12.80;99.90;;;;;;5065733;28;20513;-60
2024/04/05 06:23:19;;;;;;;4.03;1.23;;;12.90;99.90;;;;;;5072368;28;20446;-57
2024/04/05 06:25:53;;;;;;;7.40;1.57;;;12.90;99.90;;;;;;5071948;28;20516;-60
2024/04/05 06:28:19;;;;;;;4.63;1.67;;;12.90;99.90;;;;;;5072148;28;20500;-59
2024/04/05 06:30:45;;;;;;;11.90;1.60;;;12.90;99.90;;;;;;5072168;28;20451;-55
2024/04/05 06:33:12;;;;;;;6.53;1.90;;;13.00;99.90;;;;;;5072079;28;20938;-61
2024/04/05 06:35:40;;;;;;;5.47;1.30;;;13.00;99.90;;;;;;5071826;28;20530;-60
2024/04/05 06:38:08;;;;;;;5.30;1.80;;;13.00;99.90;;;;;;5071868;28;20795;-59
2024/04/05 06:40:36;;;;;;;3.50;1.20;;;13.10;99.90;;;;;;5071989;28;20439;-61
2024/04/05 06:43:03;;;;;;;3.40;1.53;;;13.20;99.90;;;;;;5072406;28;20443;-58
2024/04/05 06:45:29;;;;;;;14.90;2.03;;;13.30;99.90;;;;;;5071705;28;20889;-61
2024/04/05 06:47:56;;;;;;;2.83;1.30;;;13.40;99.90;;;;;;5072028;28;20487;-59
2024/04/05 06:50:24;;;;;;;5.27;1.77;;;13.50;99.90;;;;;;5062482;28;20442;-59
2024/04/05 06:52:56;;;;;;;2.87;1.40;;;13.60;99.90;;;;;;5066357;28;20465;-59
2024/04/05 06:55:22;;;;;;;6.60;1.53;;;13.60;99.90;;;;;;5071672;28;20486;-56
2024/04/05 06:57:51;;;;;;;4.10;1.60;;;13.70;99.90;;;;;;5071740;28;20867;-55
2024/04/05 07:00:17;;;;;;;5.00;1.80;;;13.80;99.90;;;;;;5072416;28;20443;-58
2024/04/05 07:02:44;;;;;;;3.87;1.40;;;13.90;99.90;;;;;;5072288;28;20445;-60
2024/04/05 07:05:10;;;;;;;3.80;1.77;;;13.90;99.90;;;;;;5071366;28;20508;-58
2024/04/05 07:07:37;;;;;;;18.77;4.70;;;14.00;99.90;;;;;;5034540;28;20448;-60
2024/04/05 07:10:05;;;;;;;4.50;2.40;;;14.00;99.90;;;;;;5037770;28;20444;-60
2024/04/05 07:12:32;;;;;;;13.47;2.57;;;14.10;99.90;;;;;;5032113;28;20456;-61
2024/04/05 07:14:58;;;;;;;2.80;1.90;;;14.10;99.90;;;;;;5041861;28;20858;-61
2024/04/05 07:17:25;;;;;;;6.07;1.63;;;14.10;99.90;;;;;;5042708;28;20581;-58
2024/04/05 07:19:51;;;;;;;5.03;1.93;;;14.20;99.90;;;;;;5057502;28;20937;-60
2024/04/05 07:22:20;;;;;;;15.60;1.57;;;14.20;99.90;;;;;;5051341;28;20450;-61
2024/04/05 07:24:45;;;;;;;3.90;1.67;;;14.30;99.90;;;;;;5061378;28;21049;-58
2024/04/05 07:27:14;;;;;;;6.37;1.40;;;14.40;99.90;;;;;;5047986;28;20449;-59
2024/04/05 07:29:43;;;;;;;6.40;2.00;;;14.50;99.90;;;;;;5063020;28;20624;-53
2024/04/05 07:32:10;;;;;;;7.30;2.57;;;14.60;99.90;;;;;;5054802;28;20451;-58
2024/04/05 07:34:37;;;;;;;17.63;2.93;;;14.70;99.90;;;;;;5072057;28;20485;-60
2024/04/05 07:37:04;;;;;;;8.97;2.40;;;14.80;99.90;;;;;;5062820;28;20853;-55
2024/04/05 07:39:30;;;;;;;9.40;2.10;;;14.90;99.90;;;;;;5062092;28;20496;-59
2024/04/05 07:41:57;;;;;;;7.50;2.27;;;15.10;99.90;;;;;;5056699;28;20862;-58
2024/04/05 07:44:24;;;;;;;4.87;2.30;;;15.20;99.90;;;;;;5050075;28;20225;-61
2024/04/05 07:46:51;;;;;;;6.30;2.17;;;15.30;99.90;;;;;;5047181;28;20451;-57
2024/04/05 07:49:17;;;;;;;5.23;1.70;;;15.40;99.90;;;;;;5047782;28;20847;-58
2024/04/05 07:51:44;;;;;;;6.50;1.70;;;15.60;99.90;;;;;;5055593;28;20489;-58
2024/04/05 07:54:11;;;;;;;8.63;1.90;;;15.80;99.90;;;;;;5048305;28;20236;-61
2024/04/05 07:56:38;;;;;;;8.73;2.13;;;15.80;99.90;;;;;;5047614;28;20472;-59
2024/04/05 07:59:06;;;;;;;6.90;2.27;;;15.80;99.90;;;;;;5052226;28;20497;-57
2024/04/05 08:01:37;;;;;;;6.90;2.20;;;15.80;99.90;;;;;;5055847;28;20856;-61
2024/04/05 08:04:03;;;;;;;8.73;1.80;;;15.80;99.90;;;;;;5037044;28;20464;-56
2024/04/05 08:06:30;;;;;;;9.80;2.23;;;15.90;99.90;;;;;;5037526;28;20445;-56
2024/04/05 08:08:56;;;;;;;4.00;1.50;;;16.10;99.90;;;;;;5043003;28;20439;-61
2024/04/05 08:11:23;;;;;;;4.43;2.20;;;16.20;99.90;;;;;;5057552;28;20454;-61
2024/04/05 08:13:51;;;;;;;5.50;2.80;;;16.40;99.90;;;;;;5057287;28;20485;-58
2024/04/05 08:16:18;;;;;;;12.53;3.63;;;16.60;99.90;;;;;;5057288;28;20435;-59
2024/04/05 08:18:46;;;;;;;5.80;1.90;;;16.90;99.90;;;;;;5037744;28;20444;-60
2024/04/05 08:21:12;;;;;;;7.83;2.60;;;17.00;99.90;;;;;;5037665;28;20479;-59
2024/04/05 08:23:38;;;;;;;12.30;2.87;;;17.00;99.90;;;;;;5040036;28;20794;-55
2024/04/05 08:26:05;;;;;;;15.10;4.30;;;16.90;99.90;;;;;;5037542;28;20898;-56
2024/04/05 08:28:31;;;;;;;5.47;2.23;;;16.90;99.90;;;;;;5037725;28;20452;-59
2024/04/05 08:30:58;;;;;;;5.23;2.20;;;16.80;99.90;;;;;;5037360;28;20444;-56
2024/04/05 08:33:28;;;;;;;9.43;2.70;;;16.80;99.90;;;;;;5037381;28;20940;-58
2024/04/05 08:35:56;;;;;;;3.10;1.87;;;16.90;99.90;;;;;;5041291;28;20519;-59
2024/04/05 08:38:22;;;;;;;6.33;3.10;;;17.00;99.90;;;;;;5057726;28;20439;-58
2024/04/05 08:40:50;;;;;;;3.87;1.60;;;17.00;99.90;;;;;;5057763;28;20474;-61
2024/04/05 08:43:17;;;;;;;6.10;3.40;;;16.90;99.90;;;;;;5055385;28;20978;-59
2024/04/05 08:45:44;;;;;;;3.67;1.77;;;16.80;99.90;;;;;;5042607;28;20433;-63
2024/04/05 08:48:11;;;;;;;16.57;2.47;;;16.70;99.90;;;;;;5034241;28;20472;-57
2024/04/05 08:50:39;;;;;;;10.90;2.50;;;16.70;99.90;;;;;;5034306;28;20824;-62
2024/04/05 08:53:08;;;;;;;5.93;2.17;;;16.70;99.90;;;;;;5034387;28;20783;-60
2024/04/05 08:55:39;;;;;;;6.27;1.70;;;16.70;99.90;;;;;;5050919;28;20489;-57
2024/04/05 08:58:06;;;;;;;7.00;2.40;;;16.80;99.90;;;;;;5063463;28;20450;-64
2024/04/05 09:00:33;;;;;;;5.10;2.27;;;17.00;99.90;;;;;;5056853;28;20446;-60
2024/04/05 09:03:00;;;;;;;8.10;1.70;;;17.30;99.90;;;;;;5061416;28;20556;-59
2024/04/05 09:05:27;;;;;;;5.00;1.97;;;17.50;99.90;;;;;;5061138;28;20529;-59
2024/04/05 09:08:02;;;;;;;3.37;1.93;;;17.60;99.90;;;;;;5058030;28;20467;-62
2024/04/05 09:10:31;;;;;;;9.10;1.70;;;18.00;99.90;;;;;;5049556;28;20445;-59
2024/04/05 09:12:58;;;;;;;7.97;1.83;;;18.20;99.90;;;;;;5049781;28;20440;-60
2024/04/05 09:15:26;;;;;;;6.77;3.70;;;18.20;99.90;;;;;;5062190;28;20474;-60
2024/04/05 09:17:53;;;;;;;11.20;2.87;;;18.50;99.90;;;;;;5054531;28;20475;-61
2024/04/05 09:20:24;;;;;;;4.53;2.20;;;19.10;99.90;;;;;;5054672;28;20465;-61
2024/04/05 09:22:59;;;;;;;4.00;2.00;;;19.50;99.90;;;;;;5054456;28;20494;-61
2024/04/05 09:25:27;;;;;;;5.50;1.90;;;19.80;99.90;;;;;;5078798;22;20486;-64
2024/04/05 09:28:07;;;;;;;6.20;2.43;;;20.00;99.90;;;;;;5064754;28;20531;-62
2024/04/05 09:30:35;;;;;;;6.43;2.00;;;19.90;99.90;;;;;;5065993;28;20640;-63
2024/04/05 09:33:01;;;;;;;5.43;1.90;;;19.80;99.90;;;;;;5086066;28;20434;-61
2024/04/05 09:35:29;;;;;;;5.10;2.40;;;19.70;99.90;;;;;;5039034;28;20483;-62
2024/04/05 09:37:56;;;;;;;7.40;2.17;;;19.40;99.90;;;;;;5049571;28;20444;-63
2024/04/05 09:40:24;;;;;;;7.13;2.83;;;19.20;99.90;;;;;;5039758;28;20491;-63
2024/04/05 09:42:52;;;;;;;7.60;1.70;;;19.00;99.90;;;;;;5046913;28;20448;-64
2024/04/05 09:45:21;;;;;;;6.30;2.07;;;18.70;99.90;;;;;;5045100;28;20456;-62
2024/04/05 09:47:49;;;;;;;5.90;2.33;;;18.40;99.90;;;;;;5047503;28;20908;-62
2024/04/05 09:50:17;;;;;;;3.20;1.70;;;18.20;99.90;;;;;;5055804;28;20491;-64
2024/04/05 09:52:46;;;;;;;8.40;2.40;;;17.90;99.90;;;;;;5045136;28;20443;-64
2024/04/05 09:55:13;;;;;;;8.10;2.70;;;17.70;99.90;;;;;;5047908;28;20562;-58
2024/04/05 09:57:40;;;;;;;4.00;1.97;;;17.50;99.90;;;;;;5052472;28;20787;-63
2024/04/05 10:00:14;;;;;;;5.80;2.20;;;17.40;99.90;;;;;;5044990;28;21021;-63
2024/04/05 10:02:45;;;;;;;2.67;1.63;;;17.30;99.90;;;;;;5044305;28;20459;-63
2024/04/05 10:05:12;;;;;;;6.23;1.87;;;17.20;99.90;;;;;;5065237;28;20831;-63
2024/04/05 10:07:40;;;;;;;4.93;2.13;;;17.20;99.90;;;;;;5036330;28;20531;-63
2024/04/05 10:10:10;;;;;;;7.80;2.37;;;17.40;99.90;;;;;;5050327;28;20845;-63
2024/04/05 10:12:37;;;;;;;11.70;2.13;;;18.10;99.90;;;;;;5039797;28;20439;-63
2024/04/05 10:15:03;;;;;;;5.10;1.87;;;19.10;99.90;;;;;;5038386;28;20484;-64
2024/04/05 10:17:32;;;;;;;4.80;1.67;;;19.80;99.90;;;;;;5047009;28;20436;-63
2024/04/05 10:20:05;;;;;;;3.53;1.93;;;20.50;99.90;;;;;;5038993;28;20818;-64
2024/04/05 10:22:33;;;;;;;7.10;2.70;;;21.20;99.90;;;;;;5041588;28;20531;-62
2024/04/05 10:24:59;;;;;;;4.23;1.90;;;21.40;99.90;;;;;;5047574;28;20462;-62
2024/04/05 10:27:27;;;;;;;4.73;2.23;;;21.40;99.90;;;;;;5053372;28;20479;-64
2024/04/05 10:30:00;;;;;;;5.57;1.93;;;21.30;99.90;;;;;;5046886;28;20539;-65
2024/04/05 10:32:28;;;;;;;3.27;2.50;;;21.40;99.90;;;;;;5057282;28;21012;-64
2024/04/05 10:35:06;;;;;;;4.03;1.50;;;21.70;99.90;;;;;;5059668;28;20483;-65
2024/04/05 10:37:34;;;;;;;1.77;1.50;;;21.80;99.90;;;;;;5045793;28;20501;-62
2024/04/05 10:40:06;;;;;;;5.73;1.70;;;21.40;99.90;;;;;;5045204;28;20452;-64
2024/04/05 10:42:37;;;;;;;6.17;2.00;;;21.00;99.90;;;;;;5044357;28;20448;-65
2024/04/05 10:45:05;;;;;;;6.60;1.77;;;20.60;99.90;;;;;;5043297;28;20460;-61
2024/04/05 10:47:33;;;;;;;9.13;2.27;;;20.60;99.90;;;;;;5057258;28;20444;-63
2024/04/05 10:50:00;;;;;;;2.43;1.70;;;20.60;99.90;;;;;;5037143;28;20807;-63
2024/04/05 10:52:30;;;;;;;6.60;1.80;;;20.70;99.90;;;;;;5032121;28;20445;-64
2024/04/05 10:54:56;;;;;;;3.20;1.93;;;20.90;99.90;;;;;;5041422;28;20555;-64
2024/04/05 10:57:23;;;;;;;4.03;1.70;;;21.00;99.90;;;;;;5039488;28;20497;-64
2024/04/05 10:59:49;;;;;;;7.57;2.30;;;20.80;99.90;;;;;;5041858;28;20655;-64
2024/04/05 11:02:16;;;;;;;4.00;2.00;;;20.80;99.90;;;;;;5047244;28;20450;-63
2024/04/05 11:04:42;;;;;;;3.80;1.50;;;21.10;99.90;;;;;;5039251;28;20711;-64
2024/04/05 11:07:09;;;;;;;5.07;2.50;;;21.40;99.90;;;;;;5051291;28;20532;-60
2024/04/05 11:09:36;;;;;;;4.23;1.83;;;21.50;99.90;;;;;;5045153;28;20193;-63
2024/04/05 11:12:03;;;;;;;3.13;2.20;;;21.50;99.90;;;;;;5051664;28;20483;-63
2024/04/05 11:14:29;;;;;;;4.60;2.10;;;21.60;99.90;;;;;;5051415;28;20572;-65
2024/04/05 11:17:00;;;;;;;4.83;1.43;;;21.60;99.90;;;;;;5040545;28;20527;-64
2024/04/05 11:19:26;;;;;;;7.57;2.50;;;21.50;99.90;;;;;;5040241;28;20202;-62
2024/04/05 11:21:54;;;;;;;6.63;1.83;;;21.70;99.90;;;;;;5042445;28;20475;-64
2024/04/05 11:24:20;;;;;;;6.90;2.10;;;21.90;99.90;;;;;;5043491;28;20821;-62
2024/04/05 11:26:51;;;;;;;3.23;1.70;;;22.00;99.90;;;;;;5051767;28;20451;-64
2024/04/05 11:29:18;;;;;;;4.33;1.97;;;22.10;99.90;;;;;;5046575;28;20247;-62
2024/04/05 11:31:45;;;;;;;4.03;1.93;;;22.00;99.90;;;;;;5039053;28;20869;-64
2024/04/05 11:34:11;;;;;;;4.23;2.03;;;21.90;99.90;;;;;;5039447;28;20498;-65
2024/04/05 11:36:37;;;;;;;7.57;2.50;;;21.90;99.90;;;;;;5046703;28;20449;-61
2024/04/05 11:39:04;;;;;;;9.87;3.00;;;21.70;99.90;;;;;;5045576;28;20290;-62
2024/04/05 11:41:31;;;;;;;5.53;2.20;;;21.70;99.90;;;;;;5046625;28;20438;-64
2024/04/05 11:43:58;;;;;;;4.20;1.90;;;21.30;99.90;;;;;;5042167;28;20459;-64
2024/04/05 11:46:26;;;;;;;3.83;2.37;;;20.80;99.90;;;;;;5048061;28;20444;-63
2024/04/05 11:48:52;;;;;;;6.23;2.40;;;20.50;99.90;;;;;;5047235;28;20499;-65
2024/04/05 11:51:19;;;;;;;5.43;2.00;;;20.20;99.90;;;;;;5044585;28;20472;-65
2024/04/05 11:53:45;;;;;;;7.93;2.90;;;20.10;99.90;;;;;;5044223;28;20220;-64
2024/04/05 11:56:12;;;;;;;11.80;4.57;;;20.00;99.90;;;;;;5042631;28;20869;-62
2024/04/05 11:58:38;;;;;;;11.37;6.23;;;20.00;99.90;;;;;;5043736;28;20786;-62
2024/04/05 12:01:06;;;;;;;12.70;5.00;;;20.10;99.90;;;;;;5044902;28;20505;-61
2024/04/05 12:03:32;;;;;;;6.00;2.10;;;20.20;99.90;;;;;;5042720;28;20452;-61
2024/04/05 12:06:00;;;;;;;8.50;1.97;;;20.30;99.90;;;;;;5048583;28;20800;-61
2024/04/05 12:08:26;;;;;;;9.03;1.97;;;20.40;99.90;;;;;;5043550;28;20440;-63
2024/04/05 12:10:53;;;;;;;4.53;1.70;;;20.40;99.90;;;;;;5047699;28;20451;-61
2024/04/05 12:13:19;;;;;;;4.77;2.90;;;20.50;99.90;;;;;;5050222;28;20456;-64
2024/04/05 12:15:46;;;;;;;5.80;1.87;;;20.40;99.90;;;;;;5055534;28;20481;-64
2024/04/05 12:18:13;;;;;;;12.33;2.37;;;20.40;99.90;;;;;;5045194;28;20300;-63
2024/04/05 12:20:46;;;;;;;7.60;1.80;;;20.40;99.90;;;;;;5054672;28;21045;-63
2024/04/05 12:23:12;;;;;;;4.30;2.13;;;20.50;99.90;;;;;;5056754;28;20443;-63
2024/04/05 12:25:39;;;;;;;7.70;1.60;;;20.50;99.90;;;;;;5040436;28;20444;-62
2024/04/05 12:28:05;;;;;;;4.23;2.00;;;20.60;99.90;;;;;;5047906;28;20436;-62
2024/04/05 12:30:32;;;;;;;4.30;2.10;;;20.60;99.90;;;;;;5051152;28;20479;-62
2024/04/05 12:32:58;;;;;;;5.00;2.00;;;20.60;99.90;;;;;;5050055;28;20534;-60
2024/04/05 12:35:27;;;;;;;5.93;1.60;;;20.60;99.90;;;;;;5046771;28;20569;-64
2024/04/05 12:37:54;;;;;;;5.00;2.07;;;20.60;99.90;;;;;;5048787;28;20201;-63
2024/04/05 12:40:27;;;;;;;5.13;1.60;;;20.70;99.90;;;;;;5048758;28;20463;-64
2024/04/05 12:42:53;;;;;;;3.17;1.57;;;20.60;99.90;;;;;;5049779;28;20444;-63
2024/04/05 12:45:20;;;;;;;7.90;2.07;;;20.60;99.90;;;;;;5049134;28;20969;-64
2024/04/05 12:47:46;;;;;;;3.57;1.83;;;20.60;99.90;;;;;;5046968;28;20198;-64